Lake Village, AR (71653)

9:58 PM CDT on July 30, 2016 (GMT -0500)
Q102 Downtown Greenville | | Change Station

Elev 141 ft 33.41 °N, 91.06 °W | Updated 12 seconds ago

Light Thunderstorms and Rain
Light Thunderstorm Rain
72.5 °F
Feels Like 72.5 °F
N
3.4
Wind Variable Wind from North
Gusts 5.4 mph

Today
High -- | Low -- °F
--% Chance of Precip.
Yesterday
High -- | Low -- °F
Precip. -- in
Pressure 30.07 in
Visibility 10.0 miles
Clouds Mostly Cloudy 11000 ft
Dew Point 72 °F
Humidity 97%
Rainfall 2.48 in
Snow Depth Not available.
6:16 AM 8:05 PM
Waning Crescent, 9% visible
METAR KGLH 310253Z AUTO 29006KT 10SM -TSRA BKN110 23/21 A3006 RMK AO2 PK WND 31033/0155 LTG DSNT ALQDS TSE22B25 SLP183 P0018 60028 T02280206 51037
Pressure 30.07 in
Visibility 10.0 miles
Clouds Mostly Cloudy 11000 ft
Dew Point 72 °F
Humidity 97%
Rainfall 2.48 in
Snow Depth Not available.
6:16 AM 8:05 PM
Waning Crescent, 9% visible
METAR KGLH 310253Z AUTO 29006KT 10SM -TSRA BKN110 23/21 A3006 RMK AO2 PK WND 31033/0155 LTG DSNT ALQDS TSE22B25 SLP183 P0018 60028 T02280206 51037

10-Day Weather Forecast

Almanac

Astronomy

Jul. 30, 2016 Rise Set
Actual Time
Civil Twilight
Nautical Twilight
Astronomical Twilight
Moon
Length of Visible Light
Length of Day
Tomorrow will be .
, % of the Moon is Illuminated

Today's Extremes

State Highs State Lows

Community

WunderPhotos

Upload Photos

1,928,715 photos uploaded!

WunderBlog® & News

Nearby

Air Quality

  Air Quality AQ Index Pollutant
Not available.

Snow Depth

Station Depth Elevation

Earthquake Activity

City Distance Mag. Time & Date
Minimum magnitude displayed is 2.5.

Coastal Water Temperatures

Place Temperature

Stations

Nearby Weather Stations

Station Location Temp. Windchill Dew Point Humidity Wind Precip. Elev Updated Type
                   

Watches & Warnings

There are currently no watches in effect.